sensor_id;sensor_type;location;lat;lon;timestamp;pressure;altitude;pressure_sealevel;temperature;humidity
77739;BME280;66904;59.926;30.404;2023-04-03T00:01:54;102475.28;;;25.17;25.82
77739;BME280;66904;59.926;30.404;2023-04-03T00:07:10;102473.22;;;25.19;25.79
77739;BME280;66904;59.926;30.404;2023-04-03T00:12:35;102473.22;;;25.19;25.84
77739;BME280;66904;59.926;30.404;2023-04-03T00:17:36;102466.28;;;25.17;25.75
77739;BME280;66904;59.926;30.404;2023-04-03T00:22:36;102468.16;;;25.16;25.54
77739;BME280;66904;59.926;30.404;2023-04-03T00:27:38;102464.44;;;25.17;25.87
77739;BME280;66904;59.926;30.404;2023-04-03T00:32:39;102462.06;;;25.14;25.67
77739;BME280;66904;59.926;30.404;2023-04-03T00:37:40;102467.31;;;25.16;25.63
77739;BME280;66904;59.926;30.404;2023-04-03T00:42:42;102462.72;;;25.16;25.64
77739;BME280;66904;59.926;30.404;2023-04-03T00:47:43;102464.59;;;25.16;25.84
77739;BME280;66904;59.926;30.404;2023-04-03T00:52:44;102460.22;;;25.15;25.87
77739;BME280;66904;59.926;30.404;2023-04-03T00:57:46;102461.06;;;25.15;25.62
77739;BME280;66904;59.926;30.404;2023-04-03T01:02:56;102453.25;;;25.12;25.52
77739;BME280;66904;59.926;30.404;2023-04-03T01:07:57;102457.66;;;25.13;25.72
77739;BME280;66904;59.926;30.404;2023-04-03T01:13:25;102461.88;;;25.16;25.61
77739;BME280;66904;59.926;30.404;2023-04-03T01:19:00;102458.84;;;25.11;25.64
77739;BME280;66904;59.926;30.404;2023-04-03T01:24:27;102453.44;;;25.11;25.86
77739;BME280;66904;59.926;30.404;2023-04-03T01:29:24;102453.44;;;25.11;25.44
77739;BME280;66904;59.926;30.404;2023-04-03T01:34:25;102452.56;;;25.10;25.54
77739;BME280;66904;59.926;30.404;2023-04-03T01:39:26;102454.44;;;25.10;25.28
77739;BME280;66904;59.926;30.404;2023-04-03T01:44:26;102452.56;;;25.10;25.72
77739;BME280;66904;59.926;30.404;2023-04-03T01:49:27;102451.56;;;25.11;25.42
77739;BME280;66904;59.926;30.404;2023-04-03T01:54:27;102460.69;;;25.10;25.25
77739;BME280;66904;59.926;30.404;2023-04-03T01:59:28;102458.00;;;25.10;25.28
77739;BME280;66904;59.926;30.404;2023-04-03T02:04:28;102454.44;;;25.10;25.31
77739;BME280;66904;59.926;30.404;2023-04-03T02:09:29;102458.84;;;25.11;25.14
77739;BME280;66904;59.926;30.404;2023-04-03T02:14:30;102457.13;;;25.10;25.12
77739;BME280;66904;59.926;30.404;2023-04-03T02:19:31;102463.41;;;25.10;24.97
77739;BME280;66904;59.926;30.404;2023-04-03T02:30:46;102445.13;;;25.12;24.96
77739;BME280;66904;59.926;30.404;2023-04-03T02:36:05;102449.88;;;25.10;24.97
77739;BME280;66904;59.926;30.404;2023-04-03T02:41:15;102453.44;;;25.11;24.77
77739;BME280;66904;59.926;30.404;2023-04-03T02:46:34;102447.34;;;25.09;24.92
77739;BME280;66904;59.926;30.404;2023-04-03T02:51:35;102451.72;;;25.10;25.01
77739;BME280;66904;59.926;30.404;2023-04-03T02:56:35;102440.03;;;25.09;24.76
77739;BME280;66904;59.926;30.404;2023-04-03T03:01:36;102445.44;;;25.09;24.68
77739;BME280;66904;59.926;30.404;2023-04-03T03:06:36;102449.00;;;25.10;25.13
77739;BME280;66904;59.926;30.404;2023-04-03T03:12:04;102444.97;;;25.14;24.63
77739;BME280;66904;59.926;30.404;2023-04-03T03:28:30;102452.06;;;25.07;24.33
77739;BME280;66904;59.926;30.404;2023-04-03T03:33:31;102456.81;;;25.05;24.78
77739;BME280;66904;59.926;30.404;2023-04-03T03:38:31;102448.69;;;25.05;24.70
77739;BME280;66904;59.926;30.404;2023-04-03T03:43:32;102448.69;;;25.05;24.55
77739;BME280;66904;59.926;30.404;2023-04-03T03:48:32;102454.09;;;25.05;24.56
77739;BME280;66904;59.926;30.404;2023-04-03T03:53:34;102457.66;;;25.05;24.63
77739;BME280;66904;59.926;30.404;2023-04-03T03:58:35;102461.19;;;25.06;24.61
77739;BME280;66904;59.926;30.404;2023-04-03T04:03:35;102452.25;;;25.05;24.84
77739;BME280;66904;59.926;30.404;2023-04-03T04:08:37;102451.19;;;25.06;24.80
77739;BME280;66904;59.926;30.404;2023-04-03T04:13:37;102453.91;;;25.06;24.43
77739;BME280;66904;59.926;30.404;2023-04-03T04:18:38;102444.94;;;25.06;24.30
77739;BME280;66904;59.926;30.404;2023-04-03T04:23:38;102446.78;;;24.97;24.71
77739;BME280;66904;59.926;30.404;2023-04-03T04:28:39;102449.66;;;24.88;24.65
77739;BME280;66904;59.926;30.404;2023-04-03T04:33:39;102445.75;;;24.82;25.13
77739;BME280;66904;59.926;30.404;2023-04-03T04:38:40;102449.66;;;24.88;25.36
77739;BME280;66904;59.926;30.404;2023-04-03T04:43:41;102445.41;;;24.93;25.49
77739;BME280;66904;59.926;30.404;2023-04-03T04:48:41;102446.47;;;25.00;25.44
77739;BME280;66904;59.926;30.404;2023-04-03T04:53:42;102453.25;;;25.04;25.51
77739;BME280;66904;59.926;30.404;2023-04-03T04:58:43;102449.19;;;25.08;25.69
77739;BME280;66904;59.926;30.404;2023-04-03T05:03:43;102451.72;;;25.10;25.38
77739;BME280;66904;59.926;30.404;2023-04-03T05:08:44;102450.19;;;25.07;25.68
77739;BME280;66904;59.926;30.404;2023-04-03T05:13:45;102441.72;;;25.02;25.26
77739;BME280;66904;59.926;30.404;2023-04-03T05:18:45;102445.94;;;24.97;25.19
77739;BME280;66904;59.926;30.404;2023-04-03T05:23:46;102436.97;;;24.88;25.05
77739;BME280;66904;59.926;30.404;2023-04-03T05:28:46;102451.34;;;24.89;24.92
77739;BME280;66904;59.926;30.404;2023-04-03T05:33:48;102453.53;;;24.85;24.75
77739;BME280;66904;59.926;30.404;2023-04-03T05:38:48;102450.28;;;24.82;24.72
77739;BME280;66904;59.926;30.404;2023-04-03T05:43:49;102446.88;;;24.80;24.65
77739;BME280;66904;59.926;30.404;2023-04-03T05:48:49;102450.75;;;24.77;24.56
77739;BME280;66904;59.926;30.404;2023-04-03T05:53:58;102446.53;;;24.75;24.30
77739;BME280;66904;59.926;30.404;2023-04-03T05:59:00;102442.13;;;24.74;24.50
77739;BME280;66904;59.926;30.404;2023-04-03T06:04:00;102453.47;;;24.69;24.42
77739;BME280;66904;59.926;30.404;2023-04-03T06:09:01;102451.56;;;24.69;24.90
77739;BME280;66904;59.926;30.404;2023-04-03T06:14:02;102464.09;;;24.70;24.95
77739;BME280;66904;59.926;30.404;2023-04-03T06:19:03;102464.47;;;24.76;24.77
77739;BME280;66904;59.926;30.404;2023-04-03T06:24:05;102453.97;;;24.81;24.58
77739;BME280;66904;59.926;30.404;2023-04-03T06:29:06;102456.25;;;24.85;24.67
77739;BME280;66904;59.926;30.404;2023-04-03T06:34:06;102445.94;;;24.89;24.62
77739;BME280;66904;59.926;30.404;2023-04-03T06:39:09;102452.69;;;24.93;24.65
77739;BME280;66904;59.926;30.404;2023-04-03T06:44:13;102446.28;;;24.94;24.68
77739;BME280;66904;59.926;30.404;2023-04-03T06:49:15;102460.00;;;24.92;24.69
77739;BME280;66904;59.926;30.404;2023-04-03T06:54:16;102455.22;;;24.86;24.30
77739;BME280;66904;59.926;30.404;2023-04-03T06:59:17;102471.47;;;24.86;24.45
77739;BME280;66904;59.926;30.404;2023-04-03T07:04:18;102467.22;;;24.84;24.35
77739;BME280;66904;59.926;30.404;2023-04-03T07:09:20;102461.25;;;24.80;24.30
77739;BME280;66904;59.926;30.404;2023-04-03T07:14:21;102467.84;;;24.78;24.57
77739;BME280;66904;59.926;30.404;2023-04-03T07:19:22;102471.91;;;24.74;24.52
77739;BME280;66904;59.926;30.404;2023-04-03T07:24:24;102480.53;;;24.77;24.17
77739;BME280;66904;59.926;30.404;2023-04-03T07:29:25;102475.66;;;24.81;24.26
77739;BME280;66904;59.926;30.404;2023-04-03T07:34:25;102464.69;;;24.82;24.20
77739;BME280;66904;59.926;30.404;2023-04-03T07:39:26;102464.28;;;24.77;23.99
77739;BME280;66904;59.926;30.404;2023-04-03T07:44:28;102468.72;;;24.78;24.02
77739;BME280;66904;59.926;30.404;2023-04-03T07:49:28;102474.34;;;24.85;23.86
77739;BME280;66904;59.926;30.404;2023-04-03T07:54:29;102483.47;;;24.84;23.81
77739;BME280;66904;59.926;30.404;2023-04-03T07:59:30;102478.91;;;24.84;23.95
77739;BME280;66904;59.926;30.404;2023-04-03T08:04:31;102464.38;;;24.85;23.85
77739;BME280;66904;59.926;30.404;2023-04-03T08:09:31;102486.69;;;24.87;23.86
77739;BME280;66904;59.926;30.404;2023-04-03T08:14:32;102487.22;;;24.91;23.86
77739;BME280;66904;59.926;30.404;2023-04-03T08:19:36;102498.56;;;24.94;23.85
77739;BME280;66904;59.926;30.404;2023-04-03T08:24:36;102492.16;;;24.95;23.91
77739;BME280;66904;59.926;30.404;2023-04-03T08:29:37;102497.06;;;25.00;23.74
77739;BME280;66904;59.926;30.404;2023-04-03T08:34:37;102509.06;;;24.97;23.89
77739;BME280;66904;59.926;30.404;2023-04-03T08:39:39;102505.38;;;24.98;23.64
77739;BME280;66904;59.926;30.404;2023-04-03T08:49:45;102495.38;;;24.99;23.73
77739;BME280;66904;59.926;30.404;2023-04-03T08:54:56;102496.22;;;24.99;23.91
77739;BME280;66904;59.926;30.404;2023-04-03T09:00:04;102507.88;;;25.00;24.27
77739;BME280;66904;59.926;30.404;2023-04-03T09:05:12;102493.81;;;24.96;23.93
77739;BME280;66904;59.926;30.404;2023-04-03T09:10:15;102497.06;;;25.00;24.03
77739;BME280;66904;59.926;30.404;2023-04-03T09:15:21;102506.03;;;25.00;24.10
77739;BME280;66904;59.926;30.404;2023-04-03T09:25:42;102494.69;;;24.97;23.79
77739;BME280;66904;59.926;30.404;2023-04-03T09:30:44;102489.59;;;24.94;23.96
77739;BME280;66904;59.926;30.404;2023-04-03T09:35:45;102502.13;;;25.03;23.90
77739;BME280;66904;59.926;30.404;2023-04-03T09:40:49;102485.22;;;25.01;23.96
77739;BME280;66904;59.926;30.404;2023-04-03T09:45:52;102494.38;;;25.08;23.86
77739;BME280;66904;59.926;30.404;2023-04-03T09:50:57;102506.59;;;25.12;24.28
77739;BME280;66904;59.926;30.404;2023-04-03T09:56:04;102500.13;;;25.13;23.95
77739;BME280;66904;59.926;30.404;2023-04-03T10:01:05;102511.50;;;25.16;23.86
77739;BME280;66904;59.926;30.404;2023-04-03T10:06:22;102515.44;;;25.22;23.72
77739;BME280;66904;59.926;30.404;2023-04-03T10:11:24;102512.00;;;25.20;23.96
77739;BME280;66904;59.926;30.404;2023-04-03T10:16:29;102509.16;;;25.22;23.77
77739;BME280;66904;59.926;30.404;2023-04-03T10:21:52;102512.53;;;25.24;23.81
77739;BME280;66904;59.926;30.404;2023-04-03T10:27:13;102513.72;;;25.21;23.76
77739;BME280;66904;59.926;30.404;2023-04-03T10:37:59;102514.56;;;25.22;23.62
77739;BME280;66904;59.926;30.404;2023-04-03T11:04:05;102506.59;;;25.20;23.46
77739;BME280;66904;59.926;30.404;2023-04-03T11:09:35;102522.38;;;25.25;23.39
77739;BME280;66904;59.926;30.404;2023-04-03T11:14:38;102519.47;;;25.18;24.00
77739;BME280;66904;59.926;30.404;2023-04-03T11:35:27;102516.91;;;25.08;23.79
77739;BME280;66904;59.926;30.404;2023-04-03T11:40:32;102518.44;;;25.11;23.72
77739;BME280;66904;59.926;30.404;2023-04-03T11:55:42;102523.56;;;25.22;23.98
77739;BME280;66904;59.926;30.404;2023-04-03T12:01:03;102517.81;;;25.25;24.06
77739;BME280;66904;59.926;30.404;2023-04-03T12:26:40;102512.72;;;25.30;24.18
77739;BME280;66904;59.926;30.404;2023-04-03T12:31:53;102508.47;;;25.28;24.15
77739;BME280;66904;59.926;30.404;2023-04-03T12:42:39;102503.88;;;25.20;23.91
77739;BME280;66904;59.926;30.404;2023-04-03T12:47:43;102505.75;;;25.19;23.96
77739;BME280;66904;59.926;30.404;2023-04-03T12:52:49;102508.13;;;25.23;23.99
77739;BME280;66904;59.926;30.404;2023-04-03T12:57:51;102505.06;;;25.26;24.04
77739;BME280;66904;59.926;30.404;2023-04-03T13:08:18;102516.09;;;25.32;23.73
77739;BME280;66904;59.926;30.404;2023-04-03T13:13:20;102512.38;;;25.33;23.88
77739;BME280;66904;59.926;30.404;2023-04-03T13:18:23;102522.03;;;25.36;23.69
77739;BME280;66904;59.926;30.404;2023-04-03T13:23:27;102518.31;;;25.37;23.56
77739;BME280;66904;59.926;30.404;2023-04-03T13:28:28;102520.03;;;25.38;23.69
77739;BME280;66904;59.926;30.404;2023-04-03T13:33:31;102524.44;;;25.39;23.80
77739;BME280;66904;59.926;30.404;2023-04-03T13:38:33;102517.81;;;25.41;23.61
77739;BME280;66904;59.926;30.404;2023-04-03T13:43:37;102517.66;;;25.43;23.46
77739;BME280;66904;59.926;30.404;2023-04-03T13:48:43;102508.34;;;25.45;23.50
77739;BME280;66904;59.926;30.404;2023-04-03T14:04:09;102510.88;;;25.39;23.26
77739;BME280;66904;59.926;30.404;2023-04-03T14:09:11;102511.38;;;25.34;23.56
77739;BME280;66904;59.926;30.404;2023-04-03T14:14:20;102521.34;;;25.34;24.27
77739;BME280;66904;59.926;30.404;2023-04-03T14:19:27;102513.38;;;25.32;23.90
77739;BME280;66904;59.926;30.404;2023-04-03T14:24:28;102501.22;;;25.28;23.96
77739;BME280;66904;59.926;30.404;2023-04-03T14:29:29;102500.03;;;25.31;23.64
77739;BME280;66904;59.926;30.404;2023-04-03T14:34:29;102493.59;;;25.32;23.79
77739;BME280;66904;59.926;30.404;2023-04-03T14:39:30;102487.31;;;25.31;23.96
77739;BME280;66904;59.926;30.404;2023-04-03T14:44:31;102492.38;;;25.26;23.72
77739;BME280;66904;59.926;30.404;2023-04-03T14:49:31;102498.31;;;25.22;23.80
77739;BME280;66904;59.926;30.404;2023-04-03T14:54:32;102491.69;;;25.16;23.69
77739;BME280;66904;59.926;30.404;2023-04-03T14:59:32;102493.06;;;25.12;23.55
77739;BME280;66904;59.926;30.404;2023-04-03T15:04:33;102495.56;;;25.05;23.66
77739;BME280;66904;59.926;30.404;2023-04-03T15:09:35;102498.09;;;25.07;23.23
77739;BME280;66904;59.926;30.404;2023-04-03T15:14:36;102493.88;;;25.04;23.50
77739;BME280;66904;59.926;30.404;2023-04-03T15:19:38;102503.84;;;25.04;23.67
77739;BME280;66904;59.926;30.404;2023-04-03T15:24:39;102502.31;;;25.01;23.34
77739;BME280;66904;59.926;30.404;2023-04-03T15:29:40;102505.19;;;25.00;23.25
77739;BME280;66904;59.926;30.404;2023-04-03T15:34:41;102499.75;;;25.00;23.08
77739;BME280;66904;59.926;30.404;2023-04-03T15:39:42;102500.63;;;25.00;23.30
77739;BME280;66904;59.926;30.404;2023-04-03T15:44:42;102501.47;;;25.01;22.75
77739;BME280;66904;59.926;30.404;2023-04-03T15:49:43;102495.06;;;25.02;23.05
77739;BME280;66904;59.926;30.404;2023-04-03T15:54:43;102499.44;;;25.03;23.26
77739;BME280;66904;59.926;30.404;2023-04-03T15:59:44;102495.72;;;25.04;23.63
77739;BME280;66904;59.926;30.404;2023-04-03T16:04:44;102501.13;;;25.04;24.42
77739;BME280;66904;59.926;30.404;2023-04-03T16:09:45;102487.59;;;25.04;24.78
77739;BME280;66904;59.926;30.404;2023-04-03T16:14:47;102493.69;;;25.06;24.62
77739;BME280;66904;59.926;30.404;2023-04-03T16:19:47;102489.44;;;25.03;24.94
77739;BME280;66904;59.926;30.404;2023-04-03T16:24:48;102492.53;;;25.08;25.38
77739;BME280;66904;59.926;30.404;2023-04-03T16:29:49;102492.19;;;25.11;25.76
77739;BME280;66904;59.926;30.404;2023-04-03T16:34:50;102504.56;;;25.14;25.90
77739;BME280;66904;59.926;30.404;2023-04-03T16:39:52;102504.56;;;25.14;26.15
77739;BME280;66904;59.926;30.404;2023-04-03T16:44:52;102491.69;;;25.16;26.06
77739;BME280;66904;59.926;30.404;2023-04-03T16:49:53;102500.00;;;25.14;26.36
77739;BME280;66904;59.926;30.404;2023-04-03T16:54:54;102507.78;;;25.17;26.44
77739;BME280;66904;59.926;30.404;2023-04-03T16:59:55;102501.38;;;25.18;26.13
77739;BME280;66904;59.926;30.404;2023-04-03T17:04:56;102506.78;;;25.18;26.26
77739;BME280;66904;59.926;30.404;2023-04-03T17:09:56;102500.50;;;25.26;26.15
77739;BME280;66904;59.926;30.404;2023-04-03T17:14:57;102503.59;;;25.31;26.04
77739;BME280;66904;59.926;30.404;2023-04-03T17:19:58;102496.63;;;25.37;26.28
77739;BME280;66904;59.926;30.404;2023-04-03T17:25:00;102509.66;;;25.33;26.40
77739;BME280;66904;59.926;30.404;2023-04-03T17:30:01;102506.97;;;25.25;25.99
77739;BME280;66904;59.926;30.404;2023-04-03T17:35:01;102508.31;;;25.21;25.57
77739;BME280;66904;59.926;30.404;2023-04-03T17:40:02;102507.13;;;25.15;25.35
77739;BME280;66904;59.926;30.404;2023-04-03T17:45:03;102503.03;;;25.11;25.22
77739;BME280;66904;59.926;30.404;2023-04-03T17:50:04;102504.72;;;25.12;25.52
77739;BME280;66904;59.926;30.404;2023-04-03T17:55:06;102497.28;;;25.14;25.52
77739;BME280;66904;59.926;30.404;2023-04-03T18:00:07;102506.78;;;25.18;25.51
77739;BME280;66904;59.926;30.404;2023-04-03T18:05:09;102492.19;;;25.19;25.72
77739;BME280;66904;59.926;30.404;2023-04-03T18:10:10;102486.63;;;25.21;25.63
77739;BME280;66904;59.926;30.404;2023-04-03T18:15:11;102479.16;;;25.23;25.18
77739;BME280;66904;59.926;30.404;2023-04-03T18:20:12;102474.78;;;25.22;25.49
77739;BME280;66904;59.926;30.404;2023-04-03T18:25:14;102474.78;;;25.22;25.05
77739;BME280;66904;59.926;30.404;2023-04-03T18:30:16;102480.50;;;25.19;25.16
77739;BME280;66904;59.926;30.404;2023-04-03T18:35:17;102469.34;;;25.14;25.11
77739;BME280;66904;59.926;30.404;2023-04-03T18:40:18;102485.25;;;25.09;24.81
77739;BME280;66904;59.926;30.404;2023-04-03T18:45:21;102462.88;;;25.07;24.95
77739;BME280;66904;59.926;30.404;2023-04-03T18:50:22;102467.63;;;25.05;25.40
77739;BME280;66904;59.926;30.404;2023-04-03T18:55:23;102454.94;;;25.05;25.19
77739;BME280;66904;59.926;30.404;2023-04-03T19:00:24;102450.03;;;25.09;25.12
77739;BME280;66904;59.926;30.404;2023-04-03T19:05:25;102457.66;;;25.13;25.57
77739;BME280;66904;59.926;30.404;2023-04-03T19:10:26;102444.81;;;25.24;25.59
77739;BME280;66904;59.926;30.404;2023-04-03T19:15:27;102449.56;;;25.38;25.74
77739;BME280;66904;59.926;30.404;2023-04-03T19:20:27;102457.06;;;25.52;25.76
77739;BME280;66904;59.926;30.404;2023-04-03T19:25:28;102449.78;;;25.68;25.76
77739;BME280;66904;59.926;30.404;2023-04-03T19:30:28;102435.34;;;25.84;25.85
77739;BME280;66904;59.926;30.404;2023-04-03T19:35:31;102431.41;;;26.03;25.92
77739;BME280;66904;59.926;30.404;2023-04-03T19:40:31;102427.50;;;26.22;26.00
77739;BME280;66904;59.926;30.404;2023-04-03T19:45:32;102419.16;;;26.31;26.13
77739;BME280;66904;59.926;30.404;2023-04-03T19:50:33;102423.31;;;26.42;26.01
77739;BME280;66904;59.926;30.404;2023-04-03T19:55:33;102421.25;;;26.52;25.85
77739;BME280;66904;59.926;30.404;2023-04-03T20:00:35;102422.47;;;26.49;25.56
77739;BME280;66904;59.926;30.404;2023-04-03T20:05:35;102415.72;;;26.37;25.64
77739;BME280;66904;59.926;30.404;2023-04-03T20:10:36;102420.19;;;26.22;25.37
77739;BME280;66904;59.926;30.404;2023-04-03T20:15:40;102412.91;;;26.06;25.07
77739;BME280;66904;59.926;30.404;2023-04-03T20:20:41;102413.78;;;25.99;25.16
77739;BME280;66904;59.926;30.404;2023-04-03T20:25:44;102410.75;;;25.94;24.90
77739;BME280;66904;59.926;30.404;2023-04-03T20:30:45;102413.63;;;25.92;24.60
77739;BME280;66904;59.926;30.404;2023-04-03T20:35:47;102408.88;;;25.86;24.98
77739;BME280;66904;59.926;30.404;2023-04-03T20:40:48;102392.31;;;25.81;24.61
77739;BME280;66904;59.926;30.404;2023-04-03T20:50:50;102391.97;;;25.76;24.90
77739;BME280;66904;59.926;30.404;2023-04-03T21:00:56;102383.19;;;25.58;25.10
77739;BME280;66904;59.926;30.404;2023-04-03T21:21:38;102381.63;;;25.88;26.61
77739;BME280;66904;59.926;30.404;2023-04-03T21:26:39;102389.38;;;25.99;27.20
77739;BME280;66904;59.926;30.404;2023-04-03T21:31:54;102375.94;;;26.05;27.61
77739;BME280;66904;59.926;30.404;2023-04-03T21:37:05;102366.13;;;26.04;27.26
77739;BME280;66904;59.926;30.404;2023-04-03T21:42:06;102373.94;;;25.99;26.58
77739;BME280;66904;59.926;30.404;2023-04-03T21:47:06;102360.91;;;25.95;26.67
77739;BME280;66904;59.926;30.404;2023-04-03T21:52:07;102369.41;;;25.92;26.58
77739;BME280;66904;59.926;30.404;2023-04-03T21:57:08;102371.63;;;25.88;26.28
77739;BME280;66904;59.926;30.404;2023-04-03T22:02:12;102365.34;;;25.80;26.36
77739;BME280;66904;59.926;30.404;2023-04-03T22:07:29;102358.91;;;25.73;26.13
77739;BME280;66904;59.926;30.404;2023-04-03T22:18:35;102366.56;;;25.69;25.71
77739;BME280;66904;59.926;30.404;2023-04-03T22:24:09;102359.81;;;25.65;25.86
77739;BME280;66904;59.926;30.404;2023-04-03T22:29:28;102346.41;;;25.55;25.82
77739;BME280;66904;59.926;30.404;2023-04-03T22:34:29;102350.66;;;25.58;25.75
77739;BME280;66904;59.926;30.404;2023-04-03T22:39:29;102345.41;;;25.56;25.70
77739;BME280;66904;59.926;30.404;2023-04-03T22:44:29;102345.75;;;25.53;26.25
77739;BME280;66904;59.926;30.404;2023-04-03T22:49:30;102343.03;;;25.53;25.77
77739;BME280;66904;59.926;30.404;2023-04-03T22:54:32;102342.19;;;25.53;25.76
77739;BME280;66904;59.926;30.404;2023-04-03T22:59:32;102335.75;;;25.54;25.44
77739;BME280;66904;59.926;30.404;2023-04-03T23:04:33;102336.63;;;25.54;25.43
77739;BME280;66904;59.926;30.404;2023-04-03T23:09:33;102334.06;;;25.53;25.71
77739;BME280;66904;59.926;30.404;2023-04-03T23:14:33;102333.22;;;25.52;25.25
77739;BME280;66904;59.926;30.404;2023-04-03T23:19:34;102330.69;;;25.51;25.23
77739;BME280;66904;59.926;30.404;2023-04-03T23:24:38;102336.22;;;25.49;25.11
77739;BME280;66904;59.926;30.404;2023-04-03T23:29:38;102316.09;;;25.44;25.37
77739;BME280;66904;59.926;30.404;2023-04-03T23:34:47;102325.59;;;25.48;25.07
77739;BME280;66904;59.926;30.404;2023-04-03T23:39:47;102316.75;;;25.46;25.06
77739;BME280;66904;59.926;30.404;2023-04-03T23:44:48;102303.41;;;25.44;25.27
77739;BME280;66904;59.926;30.404;2023-04-03T23:49:48;102305.56;;;25.49;25.12
